createdAt,value
2022-12-23T00:00:43.425Z,100191.88
2022-12-23T00:03:10.360Z,100185.13
2022-12-23T00:05:38.778Z,100173.81
2022-12-23T00:08:06.132Z,100167.00
2022-12-23T00:10:33.622Z,100158.56
2022-12-23T00:13:18.939Z,100143.00
2022-12-23T00:15:45.741Z,100136.88
2022-12-23T00:18:12.517Z,100137.59
2022-12-23T00:20:39.285Z,100130.59
2022-12-23T00:23:06.755Z,100118.44
2022-12-23T00:25:41.219Z,100115.06
2022-12-23T00:28:14.238Z,100120.41
2022-12-23T00:31:01.113Z,100119.75
2022-12-23T00:33:38.807Z,100115.66
2022-12-23T00:36:32.180Z,100103.47
2022-12-23T00:39:18.328Z,100102.53
2022-12-23T00:42:04.155Z,100090.28
2022-12-23T00:44:31.347Z,100082.41
2022-12-23T00:46:58.241Z,100082.25
2022-12-23T00:49:43.541Z,100070.06
2022-12-23T00:52:13.355Z,100075.16
2022-12-23T00:54:40.610Z,100076.06
2022-12-23T00:57:07.426Z,100074.38
2022-12-23T00:59:34.334Z,100071.22
2022-12-23T01:02:19.810Z,100076.97
2022-12-23T01:05:05.115Z,100058.94
2022-12-23T01:07:31.983Z,100069.06
2022-12-23T01:09:58.764Z,100066.41
2022-12-23T01:12:26.019Z,100047.69
2022-12-23T01:14:52.832Z,100066.31
2022-12-23T01:17:19.661Z,100060.13
2022-12-23T01:19:46.481Z,100045.63
2022-12-23T01:22:13.414Z,100047.06
2022-12-23T01:24:40.117Z,100023.66
2022-12-23T01:27:06.873Z,100002.94
2022-12-23T01:29:33.768Z,99995.00
2022-12-23T01:32:00.581Z,99997.53
2022-12-23T01:34:32.589Z,99991.44
2022-12-23T01:37:03.160Z,99985.28
2022-12-23T01:39:30.048Z,99981.78
2022-12-23T01:42:15.243Z,99974.72
2022-12-23T01:45:02.518Z,99966.81
2022-12-23T01:47:40.685Z,99965.00
2022-12-23T01:50:42.606Z,99949.56
2022-12-23T01:53:17.842Z,99941.72
2022-12-23T01:55:59.446Z,99943.19
2022-12-23T01:58:28.496Z,99933.63
2022-12-23T02:01:16.351Z,99942.31
2022-12-23T02:03:44.853Z,99934.53
2022-12-23T02:06:32.599Z,99923.25
2022-12-23T02:09:17.759Z,99912.66
2022-12-23T02:12:06.210Z,99905.50
2022-12-23T02:15:25.265Z,99899.28
2022-12-23T02:18:10.543Z,99900.81
2022-12-23T02:20:59.552Z,99889.31
2022-12-23T02:23:47.499Z,99895.28
2022-12-23T02:26:38.536Z,99881.19
2022-12-23T02:29:24.083Z,99863.81
2022-12-23T02:32:02.802Z,99855.03
2022-12-23T02:34:57.427Z,99845.44
2022-12-23T02:37:52.275Z,99842.59
2022-12-23T02:40:31.061Z,99838.91
2022-12-23T02:43:06.673Z,99835.16
2022-12-23T02:45:42.190Z,99811.56
2022-12-23T02:48:12.822Z,99808.91
2022-12-23T02:50:43.309Z,99792.50
2022-12-23T02:53:51.107Z,99780.41
2022-12-23T02:56:20.315Z,99780.41
2022-12-23T02:59:01.841Z,99775.22
2022-12-23T03:01:31.183Z,99763.03
2022-12-23T03:03:58.235Z,99748.97
2022-12-23T03:06:38.753Z,99750.50
2022-12-23T03:09:05.914Z,99734.78
2022-12-23T03:11:41.830Z,99725.06
2022-12-23T03:14:36.462Z,99725.81
2022-12-23T03:17:23.108Z,99722.31
2022-12-23T03:20:14.163Z,99706.66
2022-12-23T03:22:47.058Z,99683.91
2022-12-23T03:25:24.301Z,99681.91
2022-12-23T03:28:13.810Z,99684.34
2022-12-23T03:30:45.478Z,99670.22
2022-12-23T03:33:35.511Z,99665.69
2022-12-23T03:36:16.038Z,99641.22
2022-12-23T03:38:45.301Z,99646.25
2022-12-23T03:41:18.432Z,99644.41
2022-12-23T03:43:54.924Z,99634.69
2022-12-23T03:46:37.190Z,99641.41
2022-12-23T03:49:09.197Z,99624.66
2022-12-23T03:51:49.128Z,99598.34
2022-12-23T03:54:25.159Z,99589.44
2022-12-23T03:57:01.603Z,99587.59
2022-12-23T03:59:33.617Z,99583.16
2022-12-23T04:02:04.090Z,99582.25
2022-12-23T04:04:51.050Z,99568.34
2022-12-23T04:07:32.336Z,99560.34
2022-12-23T04:10:00.234Z,99543.19
2022-12-23T04:12:28.373Z,99540.78
2022-12-23T04:14:55.262Z,99530.13
2022-12-23T04:17:22.698Z,99537.59
2022-12-23T04:19:49.548Z,99516.59
2022-12-23T04:22:16.641Z,99512.91
2022-12-23T04:24:43.842Z,99502.34
2022-12-23T04:27:13.939Z,99498.81
2022-12-23T04:29:40.851Z,99482.19
2022-12-23T04:32:08.073Z,99470.69
2022-12-23T04:34:35.053Z,99479.88
2022-12-23T04:37:02.032Z,99464.00
2022-12-23T04:39:28.840Z,99474.88
2022-12-23T04:41:55.620Z,99484.25
2022-12-23T04:44:22.452Z,99484.91
2022-12-23T04:46:49.381Z,99484.66
2022-12-23T04:49:16.254Z,99487.75
2022-12-23T04:51:43.004Z,99483.19
2022-12-23T04:54:09.821Z,99483.84
2022-12-23T04:56:36.631Z,99481.16
2022-12-23T04:59:04.471Z,99476.75
2022-12-23T05:01:31.551Z,99473.97
2022-12-23T05:03:58.518Z,99481.78
2022-12-23T05:06:25.334Z,99464.22
2022-12-23T05:08:52.226Z,99464.13
2022-12-23T05:11:19.074Z,99452.91
2022-12-23T05:13:45.843Z,99444.91
2022-12-23T05:16:13.323Z,99441.44
2022-12-23T05:18:40.108Z,99440.63
2022-12-23T05:21:06.888Z,99420.44
2022-12-23T05:23:33.760Z,99416.91
2022-12-23T05:26:00.602Z,99410.84
2022-12-23T05:28:27.452Z,99401.31
2022-12-23T05:31:01.745Z,99398.69
2022-12-23T05:33:28.959Z,99376.94
2022-12-23T05:35:56.052Z,99368.19
2022-12-23T05:38:23.221Z,99346.44
2022-12-23T05:40:50.158Z,99333.22
2022-12-23T05:43:17.495Z,99334.72
2022-12-23T05:45:44.811Z,99334.59
2022-12-23T05:48:11.683Z,99324.09
2022-12-23T05:50:39.430Z,99314.53
2022-12-23T05:53:07.168Z,99296.19
2022-12-23T05:55:34.924Z,99302.16
2022-12-23T05:58:01.852Z,99302.03
2022-12-23T06:00:29.379Z,99294.09
2022-12-23T06:02:56.366Z,99290.38
2022-12-23T06:05:23.380Z,99286.19
2022-12-23T06:07:50.224Z,99296.94
2022-12-23T06:10:17.012Z,99293.44
2022-12-23T06:12:43.801Z,99286.25
2022-12-23T06:15:11.150Z,99303.31
2022-12-23T06:17:45.469Z,99294.59
2022-12-23T06:20:19.931Z,99280.41
2022-12-23T06:22:47.459Z,99273.31
2022-12-23T06:25:14.366Z,99272.13
2022-12-23T06:27:41.254Z,99260.72
2022-12-23T06:30:08.632Z,99267.53
2022-12-23T06:32:38.515Z,99266.38
2022-12-23T06:35:06.795Z,99257.41
2022-12-23T06:37:33.750Z,99266.91
2022-12-23T06:40:00.532Z,99255.41
2022-12-23T06:42:27.317Z,99256.19
2022-12-23T06:44:54.091Z,99248.97
2022-12-23T06:47:20.958Z,99231.47
2022-12-23T06:49:47.740Z,99228.75
2022-12-23T06:52:14.507Z,99226.03
2022-12-23T06:54:41.284Z,99226.03
2022-12-23T06:57:08.061Z,99216.44
2022-12-23T06:59:34.838Z,99215.63
2022-12-23T07:02:01.925Z,99204.03
2022-12-23T07:04:28.776Z,99204.75
2022-12-23T07:06:55.522Z,99203.84
2022-12-23T07:09:22.418Z,99201.94
2022-12-23T07:11:49.210Z,99207.06
2022-12-23T07:14:15.958Z,99203.53
2022-12-23T07:16:42.813Z,99203.38
2022-12-23T07:19:09.637Z,99209.34
2022-12-23T07:21:36.910Z,99192.75
2022-12-23T07:24:03.934Z,99195.16
2022-12-23T07:26:30.761Z,99196.84
2022-12-23T07:28:57.650Z,99202.03
2022-12-23T07:31:24.633Z,99193.72
2022-12-23T07:33:51.428Z,99185.34
2022-12-23T07:36:18.200Z,99200.06
2022-12-23T07:38:45.107Z,99198.28
2022-12-23T07:41:11.937Z,99191.28
2022-12-23T07:43:38.753Z,99191.16
2022-12-23T07:46:09.817Z,99188.66
2022-12-23T07:48:36.789Z,99188.56
2022-12-23T07:51:04.721Z,99175.97
2022-12-23T07:53:31.588Z,99184.16
2022-12-23T07:55:58.409Z,99178.03
2022-12-23T07:58:25.418Z,99178.31
2022-12-23T08:00:59.736Z,99182.78
2022-12-23T08:03:26.599Z,99171.66
2022-12-23T08:06:05.294Z,99180.38
2022-12-23T08:08:32.864Z,99167.97
2022-12-23T08:11:01.760Z,99182.00
2022-12-23T08:13:28.990Z,99186.06
2022-12-23T08:15:57.699Z,99186.78
2022-12-23T08:18:27.391Z,99189.19
2022-12-23T08:20:59.235Z,99183.50
2022-12-23T08:23:27.275Z,99185.06
2022-12-23T08:26:11.510Z,99189.09
2022-12-23T08:28:39.695Z,99197.31
2022-12-23T08:31:21.541Z,99194.97
2022-12-23T08:33:52.087Z,99190.09
2022-12-23T08:36:25.237Z,99193.19
2022-12-23T08:38:54.719Z,99194.66
2022-12-23T08:41:25.812Z,99201.44
2022-12-23T08:43:53.309Z,99205.25
2022-12-23T08:46:20.861Z,99201.94
2022-12-23T08:48:49.830Z,99218.81
2022-12-23T08:51:18.413Z,99216.69
2022-12-23T08:53:45.818Z,99218.13
2022-12-23T08:56:15.799Z,99214.56
2022-12-23T08:58:45.694Z,99218.63
2022-12-23T09:01:15.039Z,99230.59
2022-12-23T09:03:43.111Z,99227.78
2022-12-23T09:06:12.792Z,99240.72
2022-12-23T09:08:40.647Z,99234.53
2022-12-23T09:11:15.906Z,99222.66
2022-12-23T09:13:43.739Z,99233.38
2022-12-23T09:16:11.609Z,99241.69
2022-12-23T09:18:38.574Z,99241.31
2022-12-23T09:21:12.384Z,99250.84
2022-12-23T09:23:39.201Z,99263.56
2022-12-23T09:26:06.944Z,99266.19
2022-12-23T09:28:34.111Z,99289.22
2022-12-23T09:31:09.062Z,99295.91
2022-12-23T09:33:36.292Z,99299.22
2022-12-23T09:36:04.265Z,99303.38
2022-12-23T09:38:31.430Z,99300.53
2022-12-23T09:41:29.187Z,99313.28
2022-12-23T09:44:24.013Z,99314.09
2022-12-23T09:46:55.914Z,99310.53
2022-12-23T09:49:24.157Z,99321.81
2022-12-23T09:51:55.858Z,99312.44
2022-12-23T09:54:26.015Z,99321.00
2022-12-23T09:57:00.730Z,99323.72
2022-12-23T09:59:30.411Z,99330.59
2022-12-23T10:02:06.318Z,99331.47
2022-12-23T10:04:55.382Z,99336.69
2022-12-23T10:07:54.279Z,99346.88
2022-12-23T10:10:42.586Z,99347.63
2022-12-23T10:13:24.460Z,99357.84
2022-12-23T10:15:53.109Z,99352.28
2022-12-23T10:18:56.296Z,99362.50
2022-12-23T10:21:26.819Z,99373.34
2022-12-23T10:23:55.195Z,99384.41
2022-12-23T10:26:29.026Z,99391.91
2022-12-23T10:29:26.163Z,99398.56
2022-12-23T10:32:23.301Z,99387.97
2022-12-23T10:35:06.680Z,99406.28
2022-12-23T10:37:36.130Z,99418.81
2022-12-23T10:40:56.867Z,99413.47
2022-12-23T10:43:38.123Z,99435.59
2022-12-23T10:46:31.351Z,99432.84
2022-12-23T10:49:17.152Z,99444.38
2022-12-23T10:51:52.913Z,99452.94
2022-12-23T10:54:42.616Z,99454.84
2022-12-23T10:57:09.749Z,99464.38
2022-12-23T10:59:37.031Z,99475.56
2022-12-23T11:02:12.973Z,99457.72
2022-12-23T11:04:48.317Z,99469.59
2022-12-23T11:07:49.635Z,99467.25
2022-12-23T11:10:19.528Z,99487.00
2022-12-23T11:12:51.818Z,99484.38
2022-12-23T11:15:34.641Z,99488.41
2022-12-23T11:18:13.493Z,99489.88
2022-12-23T11:20:43.336Z,99496.75
2022-12-23T11:23:30.959Z,99496.53
2022-12-23T11:26:10.030Z,99508.19
2022-12-23T11:28:40.441Z,99496.53
2022-12-23T11:31:14.495Z,99504.28
2022-12-23T11:33:49.740Z,99503.34
2022-12-23T11:36:24.088Z,99500.81
2022-12-23T11:38:59.721Z,99502.84
2022-12-23T11:41:29.510Z,99510.34
2022-12-23T11:44:04.001Z,99503.81
2022-12-23T11:46:33.647Z,99504.16
2022-12-23T11:49:17.125Z,99515.88
2022-12-23T11:51:47.537Z,99514.06
2022-12-23T11:54:21.034Z,99522.16
2022-12-23T11:56:52.897Z,99526.94
2022-12-23T11:59:41.989Z,99528.22
2022-12-23T12:02:26.706Z,99525.50
2022-12-23T12:04:59.672Z,99530.16
2022-12-23T12:07:27.275Z,99532.72
2022-12-23T12:09:58.218Z,99532.47
2022-12-23T12:12:26.488Z,99530.22
2022-12-23T12:14:56.732Z,99539.41
2022-12-23T12:17:41.149Z,99546.06
2022-12-23T12:20:45.206Z,99555.59
2022-12-23T12:23:30.652Z,99579.16
2022-12-23T12:26:02.780Z,99576.31
2022-12-23T12:28:37.200Z,99570.88
2022-12-23T12:31:21.497Z,99578.75
2022-12-23T12:33:54.900Z,99574.69
2022-12-23T12:36:38.056Z,99567.91
2022-12-23T12:39:05.326Z,99581.34
2022-12-23T12:41:38.539Z,99575.06
2022-12-23T12:44:32.258Z,99582.44
2022-12-23T12:47:28.513Z,99577.81
2022-12-23T12:50:33.970Z,99587.19
2022-12-23T12:53:18.828Z,99578.28
2022-12-23T12:55:52.498Z,99586.13
2022-12-23T12:58:22.627Z,99579.44
2022-12-23T13:01:04.311Z,99581.00
2022-12-23T13:03:58.362Z,99587.06
2022-12-23T13:06:38.622Z,99579.56
2022-12-23T13:09:17.046Z,99592.56
2022-12-23T13:11:54.211Z,99584.59
2022-12-23T13:14:30.304Z,99591.34
2022-12-23T13:17:21.091Z,99585.16
2022-12-23T13:20:09.463Z,99594.44
2022-12-23T13:22:38.679Z,99595.03
2022-12-23T13:25:23.420Z,99584.16
2022-12-23T13:27:57.940Z,99587.72
2022-12-23T13:30:30.876Z,99596.63
2022-12-23T13:33:15.564Z,99592.09
2022-12-23T13:36:20.605Z,99596.91
2022-12-23T13:39:02.433Z,99602.22
2022-12-23T13:41:45.051Z,99592.59
2022-12-23T13:44:15.210Z,99607.97
2022-12-23T13:47:09.562Z,99609.25
2022-12-23T13:49:58.049Z,99608.16
2022-12-23T13:52:48.446Z,99610.06
2022-12-23T13:55:47.902Z,99597.25
2022-12-23T13:58:22.726Z,99605.50
2022-12-23T14:01:12.690Z,99608.34
2022-12-23T14:03:40.484Z,99608.50
2022-12-23T14:06:25.727Z,99607.75
2022-12-23T14:08:54.598Z,99612.19
2022-12-23T14:11:26.295Z,99621.63
2022-12-23T14:14:02.928Z,99618.16
2022-12-23T14:16:41.643Z,99623.53
2022-12-23T14:19:42.814Z,99626.91
2022-12-23T14:22:18.545Z,99628.19
2022-12-23T14:25:16.103Z,99626.63
2022-12-23T14:27:57.756Z,99620.44
2022-12-23T14:30:41.349Z,99636.53
2022-12-23T14:33:31.369Z,99628.78
2022-12-23T14:36:14.536Z,99627.72
2022-12-23T14:38:41.584Z,99642.38
2022-12-23T14:41:53.756Z,99640.34
2022-12-23T14:44:35.709Z,99642.38
2022-12-23T14:47:03.690Z,99638.81
2022-12-23T14:49:40.454Z,99647.41
2022-12-23T14:52:40.803Z,99642.84
2022-12-23T14:55:31.623Z,99644.88
2022-12-23T14:58:12.487Z,99637.00
2022-12-23T15:00:47.157Z,99656.91
2022-12-23T15:03:14.687Z,99655.25
2022-12-23T15:05:42.963Z,99656.63
2022-12-23T15:08:35.652Z,99661.66
2022-12-23T15:11:03.095Z,99668.53
2022-12-23T15:13:31.237Z,99663.41
2022-12-23T15:16:01.666Z,99658.75
2022-12-23T15:18:29.424Z,99655.31
2022-12-23T15:21:00.346Z,99664.34
2022-12-23T15:23:27.321Z,99660.97
2022-12-23T15:25:58.882Z,99666.81
2022-12-23T15:28:39.935Z,99662.72
2022-12-23T15:31:13.358Z,99666.44
2022-12-23T15:36:36.877Z,99679.75
2022-12-23T15:39:10.340Z,99665.63
2022-12-23T15:41:48.387Z,99687.00
2022-12-23T15:44:22.180Z,99690.59
2022-12-23T15:46:50.628Z,99690.00
2022-12-23T15:49:19.760Z,99690.88
2022-12-23T15:52:08.850Z,99689.94
2022-12-23T15:54:52.393Z,99691.75
2022-12-23T15:57:22.519Z,99690.72
2022-12-23T15:59:49.826Z,99677.75
2022-12-23T16:02:59.142Z,99688.41
2022-12-23T16:05:09.449Z,99689.97
2022-12-23T16:07:40.363Z,99687.97
2022-12-23T16:10:21.070Z,99699.97
2022-12-23T16:12:52.142Z,99709.22
2022-12-23T16:15:28.505Z,99712.69
2022-12-23T16:18:13.754Z,99720.94
2022-12-23T16:20:45.707Z,99712.59
2022-12-23T16:23:13.673Z,99710.25
2022-12-23T16:25:50.160Z,99714.75
2022-12-23T16:28:29.809Z,99724.56
2022-12-23T16:30:58.628Z,99723.09
2022-12-23T16:33:38.813Z,99725.41
2022-12-23T16:36:37.910Z,99735.47
2022-12-23T16:39:07.534Z,99745.69
2022-12-23T16:41:35.353Z,99739.44
2022-12-23T16:44:03.072Z,99744.66
2022-12-23T16:46:36.342Z,99738.09
2022-12-23T16:49:06.345Z,99730.66
2022-12-23T16:51:34.396Z,99736.19
2022-12-23T16:54:02.198Z,99728.97
2022-12-23T16:56:35.519Z,99712.66
2022-12-23T16:59:02.546Z,99731.25
2022-12-23T17:01:32.340Z,99736.19
2022-12-23T17:03:59.236Z,99740.34
2022-12-23T17:06:26.744Z,99740.78
2022-12-23T17:08:54.065Z,99736.22
2022-12-23T17:11:25.616Z,99750.97
2022-12-23T17:13:56.647Z,99752.84
2022-12-23T17:16:28.431Z,99764.94
2022-12-23T17:18:55.314Z,99761.59
2022-12-23T17:21:25.539Z,99769.34
2022-12-23T17:24:02.876Z,99772.78
2022-12-23T17:26:29.700Z,99770.16
2022-12-23T17:28:56.579Z,99767.47
2022-12-23T17:31:26.974Z,99771.66
2022-12-23T17:33:54.635Z,99762.88
2022-12-23T17:36:22.149Z,99779.44
2022-12-23T17:38:49.111Z,99776.34
2022-12-23T17:41:29.444Z,99782.00
2022-12-23T17:43:57.120Z,99797.28
2022-12-23T17:46:24.544Z,99802.94
2022-12-23T17:48:51.523Z,99814.66
2022-12-23T17:51:21.108Z,99816.34
2022-12-23T17:53:55.131Z,99818.44
2022-12-23T17:56:26.670Z,99809.81
2022-12-23T17:58:53.499Z,99806.59
2022-12-23T18:01:32.350Z,99812.13
2022-12-23T18:04:00.402Z,99804.59
2022-12-23T18:06:28.912Z,99800.56
2022-12-23T18:08:59.119Z,99807.97
2022-12-23T18:11:44.202Z,99810.31
2022-12-23T18:14:23.158Z,99803.00
2022-12-23T18:16:50.084Z,99802.53
2022-12-23T18:19:19.703Z,99814.13
2022-12-23T18:21:47.377Z,99809.38
2022-12-23T18:24:14.229Z,99812.38
2022-12-23T18:26:41.079Z,99819.75
2022-12-23T18:29:08.141Z,99828.03
2022-12-23T18:31:37.091Z,99837.28
2022-12-23T18:34:04.759Z,99847.25
2022-12-23T18:36:34.051Z,99846.50
2022-12-23T18:39:01.003Z,99849.31
2022-12-23T18:41:28.317Z,99849.78
2022-12-23T18:43:55.578Z,99848.47
2022-12-23T18:46:22.632Z,99857.31
2022-12-23T18:48:49.678Z,99859.00
2022-12-23T18:51:18.644Z,99858.91
2022-12-23T18:53:47.027Z,99856.22
2022-12-23T18:56:15.239Z,99862.44
2022-12-23T18:58:42.483Z,99865.50
2022-12-23T19:01:14.125Z,99878.38
2022-12-23T19:03:41.521Z,99874.00
2022-12-23T19:06:11.905Z,99881.56
2022-12-23T19:08:39.679Z,99881.38
2022-12-23T19:11:17.333Z,99884.72
2022-12-23T19:13:45.234Z,99885.56
2022-12-23T19:16:17.660Z,99903.63
2022-12-23T19:18:45.782Z,99904.47
2022-12-23T19:21:12.884Z,99898.31
2022-12-23T19:23:41.267Z,99910.41
2022-12-23T19:26:14.375Z,99903.53
2022-12-23T19:28:42.113Z,99902.50
2022-12-23T19:31:11.278Z,99900.94
2022-12-23T19:33:39.278Z,99905.41
2022-12-23T19:36:14.389Z,99916.69
2022-12-23T19:38:41.539Z,99920.28
2022-12-23T19:41:09.273Z,99932.50
2022-12-23T19:43:38.353Z,99933.53
2022-12-23T19:46:08.366Z,99919.72
2022-12-23T19:48:36.329Z,99926.72
2022-12-23T19:51:04.779Z,99916.56
2022-12-23T19:53:32.425Z,99925.03
2022-12-23T19:56:05.751Z,99935.91
2022-12-23T19:58:35.654Z,99938.53
2022-12-23T20:01:10.040Z,99938.69
2022-12-23T20:03:38.011Z,99937.78
2022-12-23T20:06:06.249Z,99932.34
2022-12-23T20:08:34.783Z,99951.50
2022-12-23T20:11:06.643Z,99949.59
2022-12-23T20:13:34.264Z,99957.13
2022-12-23T20:16:01.333Z,99959.97
2022-12-23T20:18:28.741Z,99965.72
2022-12-23T20:20:55.630Z,99965.38
2022-12-23T20:23:22.757Z,99964.88
2022-12-23T20:25:49.878Z,99971.34
2022-12-23T20:28:17.036Z,99977.66
2022-12-23T20:30:43.976Z,99978.81
2022-12-23T20:33:10.788Z,99985.94
2022-12-23T20:35:37.808Z,99989.06
2022-12-23T20:38:04.559Z,99999.88
2022-12-23T20:40:31.364Z,99994.91
2022-12-23T20:43:01.216Z,99996.94
2022-12-23T20:45:28.028Z,100001.47
2022-12-23T20:47:54.800Z,100000.53
2022-12-23T20:50:21.637Z,99996.09
2022-12-23T20:52:48.482Z,99999.53
2022-12-23T20:55:15.279Z,100013.59
2022-12-23T20:57:45.164Z,100012.84
2022-12-23T21:00:13.048Z,100012.31
2022-12-23T21:02:40.882Z,100014.44
2022-12-23T21:05:08.190Z,100019.00
2022-12-23T21:07:35.000Z,100020.81
2022-12-23T21:10:01.882Z,100026.41
2022-12-23T21:12:28.684Z,100030.19
2022-12-23T21:14:55.475Z,100035.69
2022-12-23T21:17:23.925Z,100039.38
2022-12-23T21:19:50.759Z,100055.03
2022-12-23T21:22:17.507Z,100036.00
2022-12-23T21:24:44.447Z,100038.44
2022-12-23T21:27:11.347Z,100042.72
2022-12-23T21:29:38.112Z,100037.53
2022-12-23T21:32:04.912Z,100033.16
2022-12-23T21:34:31.739Z,100034.59
2022-12-23T21:36:58.577Z,100049.84
2022-12-23T21:39:26.048Z,100040.88
2022-12-23T21:41:53.271Z,100050.22
2022-12-23T21:44:20.024Z,100044.94
2022-12-23T21:46:46.888Z,100049.25
2022-12-23T21:49:13.750Z,100056.97
2022-12-23T21:51:41.715Z,100068.00
2022-12-23T21:54:12.145Z,100078.16
2022-12-23T21:56:40.752Z,100080.84
2022-12-23T21:59:16.252Z,100091.53
2022-12-23T22:01:43.758Z,100111.44
2022-12-23T22:04:11.376Z,100128.72
2022-12-23T22:06:43.770Z,100132.28
2022-12-23T22:09:15.934Z,100140.53
2022-12-23T22:11:43.564Z,100167.25
2022-12-23T22:14:13.445Z,100171.31
2022-12-23T22:16:40.516Z,100164.25
2022-12-23T22:19:09.457Z,100139.38
2022-12-23T22:21:36.684Z,100133.69
2022-12-23T22:24:04.058Z,100123.34
2022-12-23T22:26:32.740Z,100111.56
2022-12-23T22:29:01.822Z,100106.78
2022-12-23T22:31:31.361Z,100115.13
2022-12-23T22:33:58.885Z,100119.41
2022-12-23T22:36:26.064Z,100118.38
2022-12-23T22:38:55.538Z,100128.75
2022-12-23T22:41:23.675Z,100118.97
2022-12-23T22:43:50.455Z,100117.78
2022-12-23T22:46:18.761Z,100117.47
2022-12-23T22:48:46.602Z,100121.09
2022-12-23T22:51:22.418Z,100121.28
2022-12-23T22:53:49.228Z,100128.00
2022-12-23T22:56:18.587Z,100133.81
2022-12-23T22:58:45.666Z,100131.38
2022-12-23T23:01:25.839Z,100136.69
2022-12-23T23:03:57.634Z,100136.22
2022-12-23T23:06:32.917Z,100142.47
2022-12-23T23:09:00.349Z,100142.75
2022-12-23T23:11:28.081Z,100143.03
2022-12-23T23:13:55.741Z,100149.28
2022-12-23T23:16:23.362Z,100150.19
2022-12-23T23:18:50.987Z,100155.53
2022-12-23T23:21:17.868Z,100148.53
2022-12-23T23:23:45.485Z,100147.25
2022-12-23T23:26:13.212Z,100154.03
2022-12-23T23:28:40.760Z,100145.09
2022-12-23T23:33:55.646Z,100160.28
2022-12-23T23:36:22.545Z,100165.72
2022-12-23T23:38:49.401Z,100165.72
2022-12-23T23:41:20.671Z,100169.25
2022-12-23T23:43:49.587Z,100168.31
2022-12-23T23:46:16.492Z,100170.06
2022-12-23T23:48:43.301Z,100172.84
2022-12-23T23:51:10.225Z,100177.28
2022-12-23T23:53:36.988Z,100177.28
2022-12-23T23:56:06.403Z,100167.78
2022-12-23T23:58:35.161Z,100179.03
